createdAt,value
2017-10-21T00:00:55.113Z,33.87
2017-10-21T00:03:23.550Z,31.20
2017-10-21T00:05:52.026Z,29.50
2017-10-21T00:08:20.469Z,31.37
2017-10-21T00:10:48.933Z,31.37
2017-10-21T00:13:17.377Z,26.60
2017-10-21T00:15:46.614Z,27.97
2017-10-21T00:18:15.065Z,27.43
2017-10-21T00:20:44.804Z,30.27
2017-10-21T00:23:13.274Z,24.33
2017-10-21T00:25:41.717Z,24.67
2017-10-21T00:28:10.946Z,26.93
2017-10-21T00:30:40.182Z,25.17
2017-10-21T00:33:08.650Z,28.90
2017-10-21T00:35:37.148Z,26.60
2017-10-21T00:38:05.630Z,29.13
2017-10-21T00:40:34.101Z,25.60
2017-10-21T00:43:02.569Z,26.70
2017-10-21T00:45:31.016Z,30.50
2017-10-21T00:47:59.548Z,26.93
2017-10-21T00:50:27.984Z,25.80
2017-10-21T00:52:56.516Z,24.83
2017-10-21T00:55:24.976Z,22.87
2017-10-21T00:57:53.412Z,24.53
2017-10-21T01:00:21.873Z,22.00
2017-10-21T01:02:50.352Z,25.80
2017-10-21T01:05:18.818Z,22.20
2017-10-21T01:07:47.263Z,21.30
2017-10-21T01:10:16.606Z,23.20
2017-10-21T01:12:45.094Z,23.63
2017-10-21T01:15:13.578Z,20.40
2017-10-21T01:17:42.023Z,23.63
2017-10-21T01:20:11.252Z,20.83
2017-10-21T01:22:39.689Z,20.30
2017-10-21T01:25:08.923Z,17.63
2017-10-21T01:27:37.422Z,16.37
2017-10-21T01:30:05.996Z,18.87
2017-10-21T01:32:34.437Z,17.47
2017-10-21T01:35:03.649Z,16.77
2017-10-21T01:37:32.982Z,16.67
2017-10-21T01:40:01.420Z,17.23
2017-10-21T01:42:30.653Z,16.93
2017-10-21T01:44:59.097Z,16.77
2017-10-21T01:47:27.571Z,18.97
2017-10-21T01:49:56.013Z,18.27
2017-10-21T01:52:24.482Z,16.63
2017-10-21T01:54:52.976Z,16.60
2017-10-21T01:57:21.562Z,19.90
2017-10-21T01:59:50.018Z,17.97
2017-10-21T02:02:18.480Z,20.97
2017-10-21T02:04:47.730Z,19.10
2017-10-21T02:07:16.303Z,18.63
2017-10-21T02:09:44.742Z,20.80
2017-10-21T02:12:14.081Z,20.90
2017-10-21T02:14:42.521Z,21.77
2017-10-21T02:17:11.730Z,21.60
2017-10-21T02:19:40.957Z,20.43
2017-10-21T02:22:09.406Z,21.93
2017-10-21T02:24:38.643Z,20.43
2017-10-21T02:27:07.135Z,19.07
2017-10-21T02:29:35.695Z,22.03
2017-10-21T02:32:04.137Z,19.43
2017-10-21T02:34:32.610Z,19.73
2017-10-21T02:37:01.053Z,18.57
2017-10-21T02:39:29.513Z,19.67
2017-10-21T02:41:58.731Z,19.77
2017-10-21T02:44:27.217Z,17.63
2017-10-21T02:46:55.672Z,17.30
2017-10-21T02:49:25.011Z,18.87
2017-10-21T02:51:53.459Z,20.10
2017-10-21T02:54:22.795Z,19.03
2017-10-21T02:56:51.280Z,17.53
2017-10-21T02:59:19.741Z,17.43
2017-10-21T03:01:48.205Z,19.90
2017-10-21T03:04:17.413Z,18.83
2017-10-21T03:06:45.918Z,18.30
2017-10-21T03:09:14.370Z,18.37
2017-10-21T03:11:43.600Z,18.23
2017-10-21T03:14:12.046Z,17.30
2017-10-21T03:16:41.379Z,16.70
2017-10-21T03:19:09.867Z,18.60
2017-10-21T03:21:38.328Z,16.90
2017-10-21T03:24:06.774Z,16.67
2017-10-21T03:26:36.002Z,15.43
2017-10-21T03:29:04.451Z,16.33
2017-10-21T03:31:33.688Z,18.10
2017-10-21T03:34:02.130Z,18.00
2017-10-21T03:36:30.594Z,16.53
2017-10-21T03:38:59.045Z,16.30
2017-10-21T03:41:27.638Z,18.63
2017-10-21T03:43:56.087Z,17.50
2017-10-21T03:46:25.295Z,17.37
2017-10-21T03:48:53.781Z,16.47
2017-10-21T03:51:22.273Z,18.17
2017-10-21T03:53:50.732Z,17.60
2017-10-21T03:56:19.933Z,17.40
2017-10-21T03:58:49.165Z,18.27
2017-10-21T04:01:17.622Z,15.80
2017-10-21T04:03:46.094Z,17.60
2017-10-21T04:06:15.302Z,16.83
2017-10-21T04:08:43.807Z,18.13
2017-10-21T04:11:12.246Z,14.60
2017-10-21T04:13:41.483Z,17.10
2017-10-21T04:16:09.924Z,15.40
2017-10-21T04:18:39.271Z,15.50
2017-10-21T04:21:07.713Z,14.43
2017-10-21T04:23:36.957Z,15.33
2017-10-21T04:26:05.406Z,16.13
2017-10-21T04:28:33.851Z,14.80
2017-10-21T04:31:02.314Z,14.27
2017-10-21T04:33:30.778Z,14.17
2017-10-21T04:35:59.241Z,15.60
2017-10-21T04:38:28.134Z,13.37
2017-10-21T04:40:56.611Z,14.83
2017-10-21T04:43:25.111Z,12.90
2017-10-21T04:45:53.587Z,13.40
2017-10-21T04:48:22.034Z,11.83
2017-10-21T04:50:51.279Z,13.27
2017-10-21T04:53:19.731Z,14.57
2017-10-21T04:55:48.974Z,12.57
2017-10-21T04:58:17.419Z,11.70
2017-10-21T05:00:45.903Z,11.57
2017-10-21T05:03:14.342Z,11.47
2017-10-21T05:05:42.890Z,12.70
2017-10-21T05:08:11.329Z,12.23
2017-10-21T05:10:40.575Z,10.73
2017-10-21T05:13:09.046Z,10.27
2017-10-21T05:15:37.539Z,8.63
2017-10-21T05:18:06.012Z,10.60
2017-10-21T05:20:34.457Z,9.60
2017-10-21T05:23:03.691Z,9.80
2017-10-21T05:25:32.169Z,9.70
2017-10-21T05:28:00.633Z,9.47
2017-10-21T05:30:29.143Z,8.63
2017-10-21T05:32:57.619Z,9.10
2017-10-21T05:35:26.057Z,10.83
2017-10-21T05:37:55.398Z,9.57
2017-10-21T05:40:23.847Z,11.10
2017-10-21T05:42:53.087Z,10.07
2017-10-21T05:45:21.561Z,9.30
2017-10-21T05:47:50.028Z,8.70
2017-10-21T05:50:18.474Z,8.87
2017-10-21T05:52:46.933Z,8.83
2017-10-21T05:55:17.129Z,9.17
2017-10-21T05:57:45.595Z,7.63
2017-10-21T06:00:14.103Z,8.30
2017-10-21T06:02:42.547Z,6.90
2017-10-21T06:05:11.879Z,8.50
2017-10-21T06:07:40.325Z,7.00
2017-10-21T06:10:09.554Z,7.47
2017-10-21T06:12:37.998Z,7.40
2017-10-21T06:15:07.234Z,7.33
2017-10-21T06:17:39.725Z,7.00
2017-10-21T06:20:08.200Z,7.40
2017-10-21T06:22:36.645Z,7.63
2017-10-21T06:25:05.876Z,7.97
2017-10-21T06:27:34.313Z,7.10
2017-10-21T06:30:02.851Z,8.33
2017-10-21T06:32:31.289Z,8.67
2017-10-21T06:35:00.525Z,8.70
2017-10-21T06:37:28.975Z,7.47
2017-10-21T06:39:58.305Z,8.37
2017-10-21T06:42:26.750Z,7.90
2017-10-21T06:44:55.987Z,9.47
2017-10-21T06:47:24.443Z,9.70
2017-10-21T06:49:53.651Z,7.20
2017-10-21T06:52:22.158Z,7.53
2017-10-21T06:54:50.598Z,7.47
2017-10-21T06:57:19.933Z,7.17
2017-10-21T06:59:48.390Z,8.40
2017-10-21T07:02:17.622Z,7.93
2017-10-21T07:04:46.098Z,7.10
2017-10-21T07:07:14.574Z,8.93
2017-10-21T07:09:43.075Z,7.43
2017-10-21T07:12:11.545Z,7.23
2017-10-21T07:14:39.989Z,7.50
2017-10-21T07:17:09.217Z,10.20
2017-10-21T07:19:37.662Z,8.50
2017-10-21T07:22:06.903Z,9.00
2017-10-21T07:24:35.341Z,8.00
2017-10-21T07:27:04.695Z,7.70
2017-10-21T07:29:33.179Z,8.60
2017-10-21T07:32:01.654Z,8.03
2017-10-21T07:34:30.133Z,7.93
2017-10-21T07:36:58.627Z,7.33
2017-10-21T07:39:27.089Z,6.60
2017-10-21T07:41:55.573Z,8.10
2017-10-21T07:44:24.866Z,7.63
2017-10-21T07:46:53.301Z,6.93
2017-10-21T07:49:21.761Z,7.73
2017-10-21T07:51:50.234Z,8.23
2017-10-21T07:54:18.697Z,7.83
2017-10-21T07:56:47.137Z,7.30
2017-10-21T07:59:16.499Z,6.53
2017-10-21T08:01:44.974Z,8.47
2017-10-21T08:04:13.448Z,7.00
2017-10-21T08:06:41.894Z,6.90
2017-10-21T08:09:11.102Z,7.43
2017-10-21T08:11:40.336Z,6.50
2017-10-21T08:14:08.784Z,6.93
2017-10-21T08:16:38.014Z,7.87
2017-10-21T08:19:06.453Z,6.67
2017-10-21T08:21:35.690Z,7.87
2017-10-21T08:24:04.139Z,8.10
2017-10-21T08:26:33.374Z,6.27
2017-10-21T08:29:01.809Z,6.80
2017-10-21T08:31:30.359Z,6.30
2017-10-21T08:33:58.803Z,6.23
2017-10-21T08:36:27.265Z,5.73
2017-10-21T08:38:56.518Z,5.90
2017-10-21T08:41:25.142Z,6.03
2017-10-21T08:43:54.361Z,6.07
2017-10-21T08:46:23.596Z,6.40
2017-10-21T08:48:52.046Z,7.80
2017-10-21T08:51:21.278Z,6.33
2017-10-21T08:53:49.748Z,6.60
2017-10-21T08:56:18.243Z,6.50
2017-10-21T08:58:46.826Z,8.50
2017-10-21T09:01:15.269Z,7.20
2017-10-21T09:03:44.493Z,6.53
2017-10-21T09:06:12.930Z,6.27
2017-10-21T09:08:41.394Z,5.40
2017-10-21T09:11:09.844Z,6.60
2017-10-21T09:13:38.314Z,6.67
2017-10-21T09:16:06.766Z,6.17
2017-10-21T09:18:36.115Z,7.10
2017-10-21T09:21:04.556Z,6.30
2017-10-21T09:23:33.792Z,6.10
2017-10-21T09:26:02.238Z,6.30
2017-10-21T09:28:31.478Z,6.80
2017-10-21T09:30:59.926Z,6.53
2017-10-21T09:33:29.185Z,7.80
2017-10-21T09:35:57.640Z,19.77
2017-10-21T09:38:26.099Z,44.40
2017-10-21T09:40:54.565Z,8.67
2017-10-21T09:43:23.774Z,5.77
2017-10-21T09:45:52.250Z,5.83
2017-10-21T09:48:21.486Z,5.87
2017-10-21T09:50:49.946Z,6.73
2017-10-21T09:53:18.381Z,5.90
2017-10-21T09:55:46.846Z,5.93
2017-10-21T09:58:15.295Z,5.63
2017-10-21T10:00:43.752Z,5.83
2017-10-21T10:03:12.992Z,6.10
2017-10-21T10:05:41.465Z,5.67
2017-10-21T10:08:09.955Z,5.67
2017-10-21T10:10:38.423Z,6.30
2017-10-21T10:13:06.857Z,4.70
2017-10-21T10:15:35.405Z,5.23
2017-10-21T10:18:03.859Z,6.00
2017-10-21T10:20:32.365Z,5.70
2017-10-21T10:23:00.825Z,6.03
2017-10-21T10:25:29.270Z,5.70
2017-10-21T10:27:57.808Z,6.67
2017-10-21T10:30:26.390Z,4.90
2017-10-21T10:32:54.849Z,5.10
2017-10-21T10:35:24.068Z,5.67
2017-10-21T10:37:52.562Z,5.40
2017-10-21T10:40:21.002Z,4.93
2017-10-21T10:42:50.345Z,4.93
2017-10-21T10:45:18.786Z,5.80
2017-10-21T10:47:48.018Z,5.03
2017-10-21T10:50:16.472Z,5.20
2017-10-21T10:52:44.954Z,6.73
2017-10-21T10:55:14.164Z,5.20
2017-10-21T10:57:42.672Z,5.53
2017-10-21T11:00:11.254Z,5.60
2017-10-21T11:02:39.735Z,4.90
2017-10-21T11:05:08.203Z,5.33
2017-10-21T11:07:36.636Z,4.50
2017-10-21T11:10:05.183Z,5.17
2017-10-21T11:12:33.662Z,4.60
2017-10-21T11:15:02.242Z,4.70
2017-10-21T11:17:30.686Z,5.33
2017-10-21T11:20:00.021Z,4.53
2017-10-21T11:22:28.456Z,4.90
2017-10-21T11:24:56.925Z,5.10
2017-10-21T11:27:25.366Z,4.03
2017-10-21T11:29:53.837Z,4.50
2017-10-21T11:32:22.272Z,4.30
2017-10-21T11:34:50.749Z,4.30
2017-10-21T11:37:19.196Z,3.87
2017-10-21T11:39:47.641Z,3.63
2017-10-21T11:42:16.967Z,4.20
2017-10-21T11:44:45.404Z,4.40
2017-10-21T11:47:13.865Z,3.33
2017-10-21T11:49:42.330Z,4.17
2017-10-21T11:52:10.800Z,3.00
2017-10-21T11:54:39.286Z,4.10
2017-10-21T11:57:07.764Z,4.33
2017-10-21T11:59:36.198Z,4.20
2017-10-21T12:02:04.665Z,5.07
2017-10-21T12:04:33.125Z,3.87
2017-10-21T12:07:01.596Z,3.50
2017-10-21T12:09:30.083Z,4.53
2017-10-21T12:11:58.667Z,4.40
2017-10-21T12:14:27.105Z,4.03
2017-10-21T12:16:56.365Z,4.63
2017-10-21T12:19:24.812Z,4.30
2017-10-21T12:21:53.249Z,5.20
2017-10-21T12:24:22.473Z,4.57
2017-10-21T12:26:51.683Z,4.50
2017-10-21T12:29:20.181Z,3.90
2017-10-21T12:31:48.622Z,4.60
2017-10-21T12:34:17.974Z,4.80
2017-10-21T12:36:46.414Z,5.53
2017-10-21T12:39:15.642Z,4.53
2017-10-21T12:41:44.086Z,4.67
2017-10-21T12:44:13.416Z,4.13
2017-10-21T12:46:41.871Z,4.13
2017-10-21T12:49:11.106Z,4.53
2017-10-21T12:51:39.585Z,3.80
2017-10-21T12:54:08.045Z,4.60
2017-10-21T12:56:37.258Z,4.37
2017-10-21T12:59:05.738Z,4.80
2017-10-21T13:01:34.187Z,4.40
2017-10-21T13:04:02.634Z,5.20
2017-10-21T13:06:31.103Z,4.40
2017-10-21T13:08:59.586Z,13.00
2017-10-21T13:11:28.058Z,4.03
2017-10-21T13:13:56.506Z,3.93
2017-10-21T13:16:25.737Z,4.80
2017-10-21T13:18:54.234Z,5.30
2017-10-21T13:21:22.697Z,4.50
2017-10-21T13:23:51.138Z,4.57
2017-10-21T13:26:19.610Z,3.90
2017-10-21T13:28:48.049Z,3.63
2017-10-21T13:31:16.542Z,4.53
2017-10-21T13:33:44.984Z,3.40
2017-10-21T13:36:14.208Z,3.80
2017-10-21T13:38:42.660Z,3.33
2017-10-21T13:41:12.007Z,4.30
2017-10-21T13:43:40.475Z,3.50
2017-10-21T13:48:42.666Z,4.77
2017-10-21T13:51:11.115Z,3.93
2017-10-21T13:53:40.347Z,3.77
2017-10-21T13:56:08.795Z,4.60
2017-10-21T13:58:38.142Z,4.10
2017-10-21T14:01:06.608Z,4.70
2017-10-21T14:03:35.073Z,5.20
2017-10-21T14:06:03.586Z,4.30
2017-10-21T14:08:32.055Z,4.27
2017-10-21T14:11:00.499Z,5.30
2017-10-21T14:13:29.744Z,4.20
2017-10-21T14:15:58.192Z,4.90
2017-10-21T14:18:27.594Z,4.27
2017-10-21T14:20:56.801Z,4.83
2017-10-21T14:23:26.012Z,5.77
2017-10-21T14:25:54.479Z,6.00
2017-10-21T14:28:23.687Z,5.63
2017-10-21T14:30:52.145Z,4.73
2017-10-21T14:33:21.430Z,4.53
2017-10-21T14:35:50.674Z,4.00
2017-10-21T14:38:19.118Z,5.10
2017-10-21T14:40:47.591Z,5.43
2017-10-21T14:43:16.029Z,4.20
2017-10-21T14:45:44.520Z,3.70
2017-10-21T14:48:12.967Z,4.50
2017-10-21T14:50:42.200Z,3.87
2017-10-21T14:53:10.683Z,4.30
2017-10-21T14:55:39.883Z,4.30
2017-10-21T14:58:08.367Z,5.10
2017-10-21T15:00:36.828Z,4.93
2017-10-21T15:03:05.278Z,4.77
2017-10-21T15:05:35.321Z,5.47
2017-10-21T15:08:03.803Z,5.27
2017-10-21T15:10:32.259Z,6.70
2017-10-21T15:13:01.601Z,26.83
2017-10-21T15:15:30.042Z,11.20
2017-10-21T15:17:59.317Z,10.07
2017-10-21T15:20:27.880Z,7.80
2017-10-21T15:22:56.341Z,6.87
2017-10-21T15:25:24.845Z,5.30
2017-10-21T15:27:53.311Z,6.27
2017-10-21T15:30:21.749Z,6.30
2017-10-21T15:32:50.234Z,5.40
2017-10-21T15:35:19.490Z,5.40
2017-10-21T15:37:47.939Z,5.90
2017-10-21T15:40:16.404Z,6.33
2017-10-21T15:42:45.612Z,6.00
2017-10-21T15:45:14.960Z,7.90
2017-10-21T15:47:43.407Z,8.23
2017-10-21T15:50:11.922Z,9.10
2017-10-21T15:52:40.362Z,10.20
2017-10-21T15:55:09.594Z,9.50
2017-10-21T15:57:38.047Z,7.97
2017-10-21T16:00:06.517Z,9.20
2017-10-21T16:02:35.721Z,10.90
2017-10-21T16:05:04.975Z,9.00
2017-10-21T16:07:33.413Z,8.20
2017-10-21T16:10:01.862Z,5.97
2017-10-21T16:12:30.360Z,5.77
2017-10-21T16:14:59.592Z,4.83
2017-10-21T16:17:28.059Z,6.17
2017-10-21T16:19:56.578Z,5.87
2017-10-21T16:22:25.055Z,5.43
2017-10-21T16:24:53.638Z,5.30
2017-10-21T16:27:22.097Z,6.97
2017-10-21T16:29:50.598Z,10.27
2017-10-21T16:32:19.057Z,9.20
2017-10-21T16:34:47.565Z,12.70
2017-10-21T16:37:16.139Z,12.00
2017-10-21T16:39:44.585Z,13.50
2017-10-21T16:42:13.789Z,14.80
2017-10-21T16:44:43.130Z,12.50
2017-10-21T16:47:11.568Z,15.60
2017-10-21T16:49:40.807Z,12.13
2017-10-21T16:52:09.249Z,14.27
2017-10-21T16:54:38.484Z,13.40
2017-10-21T16:57:06.970Z,12.70
2017-10-21T16:59:35.554Z,13.23
2017-10-21T17:02:04.006Z,14.20
2017-10-21T17:04:32.482Z,12.50
2017-10-21T17:07:01.695Z,11.50
2017-10-21T17:09:30.158Z,11.10
2017-10-21T17:11:59.366Z,10.90
2017-10-21T17:14:28.700Z,12.33
2017-10-21T17:16:57.182Z,11.00
2017-10-21T17:19:25.621Z,11.47
2017-10-21T17:21:54.849Z,9.17
2017-10-21T17:24:23.294Z,11.30
2017-10-21T17:26:52.651Z,9.93
2017-10-21T17:29:21.122Z,10.27
2017-10-21T17:31:49.610Z,9.50
2017-10-21T17:34:18.062Z,10.83
2017-10-21T17:36:46.540Z,13.57
2017-10-21T17:39:15.749Z,13.70
2017-10-21T17:41:44.213Z,11.90
2017-10-21T17:44:13.429Z,10.33
2017-10-21T17:46:41.894Z,10.03
2017-10-21T17:49:11.106Z,9.20
2017-10-21T17:51:39.575Z,8.13
2017-10-21T17:54:08.815Z,8.30
2017-10-21T17:56:37.289Z,7.23
2017-10-21T17:59:05.742Z,7.70
2017-10-21T18:01:34.975Z,6.40
2017-10-21T18:04:03.463Z,7.13
2017-10-21T18:06:32.269Z,6.70
2017-10-21T18:09:00.733Z,6.77
2017-10-21T18:11:29.179Z,6.60
2017-10-21T18:13:58.407Z,7.23
2017-10-21T18:16:26.853Z,7.90
2017-10-21T18:18:56.077Z,7.50
2017-10-21T18:21:24.645Z,6.97
2017-10-21T18:23:53.934Z,8.10
2017-10-21T18:26:23.178Z,7.30
2017-10-21T18:28:51.753Z,7.83
2017-10-21T18:31:20.199Z,8.17
2017-10-21T18:33:49.441Z,7.80
2017-10-21T18:36:17.894Z,7.60
2017-10-21T18:38:46.407Z,7.80
2017-10-21T18:41:14.851Z,8.87
2017-10-21T18:43:44.118Z,8.13
2017-10-21T18:46:12.848Z,9.57
2017-10-21T18:48:41.573Z,9.80
2017-10-21T18:51:10.026Z,10.27
2017-10-21T18:53:38.513Z,10.23
2017-10-21T18:56:07.006Z,9.23
2017-10-21T18:58:35.488Z,10.00
2017-10-21T19:01:03.953Z,9.97
2017-10-21T19:03:32.390Z,8.10
2017-10-21T19:06:00.906Z,8.97
2017-10-21T19:08:30.140Z,8.60
2017-10-21T19:10:58.710Z,8.63
2017-10-21T19:13:27.203Z,7.23
2017-10-21T19:15:55.737Z,7.20
2017-10-21T19:18:24.952Z,7.50
2017-10-21T19:20:54.199Z,8.33
2017-10-21T19:23:22.733Z,7.40
2017-10-21T19:25:52.061Z,8.20
2017-10-21T19:28:20.548Z,8.63
2017-10-21T19:30:49.139Z,9.03
2017-10-21T19:33:17.601Z,9.93
2017-10-21T19:35:46.297Z,9.47
2017-10-21T19:38:14.751Z,9.80
2017-10-21T19:40:43.193Z,9.60
2017-10-21T19:43:11.747Z,10.03
2017-10-21T19:45:40.195Z,10.87
2017-10-21T19:48:09.521Z,11.13
2017-10-21T19:50:38.087Z,10.80
2017-10-21T19:53:07.610Z,11.13
2017-10-21T19:55:36.115Z,11.40
2017-10-21T19:58:04.597Z,9.77
2017-10-21T20:00:33.075Z,9.37
2017-10-21T20:03:01.581Z,12.50
2017-10-21T20:05:30.026Z,9.07
2017-10-21T20:07:58.492Z,9.27
2017-10-21T20:10:26.950Z,9.30
2017-10-21T20:12:56.377Z,11.50
2017-10-21T20:15:24.827Z,9.43
2017-10-21T20:17:53.368Z,10.80
2017-10-21T20:20:22.274Z,10.23
2017-10-21T20:22:50.743Z,9.73
2017-10-21T20:25:19.209Z,10.47
2017-10-21T20:27:47.649Z,14.10
2017-10-21T20:30:16.190Z,9.23
2017-10-21T20:32:44.637Z,8.43
2017-10-21T20:35:13.966Z,8.30
2017-10-21T20:37:42.410Z,9.27
2017-10-21T20:40:11.637Z,9.10
2017-10-21T20:42:40.069Z,8.60
2017-10-21T20:45:08.533Z,8.20
2017-10-21T20:47:36.977Z,8.23
2017-10-21T20:50:05.444Z,8.93
2017-10-21T20:52:34.645Z,8.73
2017-10-21T20:55:03.871Z,8.37
2017-10-21T20:57:32.317Z,9.63
2017-10-21T21:00:01.551Z,8.67
2017-10-21T21:02:30.007Z,7.63
2017-10-21T21:04:58.498Z,8.90
2017-10-21T21:07:27.003Z,7.63
2017-10-21T21:09:55.531Z,8.67
2017-10-21T21:12:23.998Z,8.50
2017-10-21T21:14:52.546Z,9.20
2017-10-21T21:17:21.028Z,8.17
2017-10-21T21:19:49.473Z,8.43
2017-10-21T21:22:18.701Z,10.23
2017-10-21T21:24:47.190Z,9.47
2017-10-21T21:27:15.658Z,8.73
2017-10-21T21:29:44.093Z,8.23
2017-10-21T21:32:12.549Z,9.40
2017-10-21T21:34:40.998Z,9.10
2017-10-21T21:37:09.475Z,8.77
2017-10-21T21:39:37.927Z,8.13
2017-10-21T21:42:06.467Z,8.13
2017-10-21T21:44:34.945Z,8.70
2017-10-21T21:47:03.390Z,7.53
2017-10-21T21:49:32.629Z,7.90
2017-10-21T21:52:01.069Z,7.47
2017-10-21T21:54:30.293Z,8.27
2017-10-21T21:56:58.729Z,6.67
2017-10-21T21:59:27.195Z,8.40
2017-10-21T22:01:55.642Z,7.97
2017-10-21T22:04:24.114Z,7.13
2017-10-21T22:06:52.561Z,7.73
2017-10-21T22:09:21.033Z,7.87
2017-10-21T22:11:49.465Z,9.60
2017-10-21T22:14:17.958Z,7.13
2017-10-21T22:16:46.392Z,8.60
2017-10-21T22:19:14.853Z,8.27
2017-10-21T22:21:43.289Z,8.57
2017-10-21T22:24:11.755Z,7.27
2017-10-21T22:26:40.982Z,7.60
2017-10-21T22:29:09.418Z,8.13
2017-10-21T22:31:38.655Z,7.90
2017-10-21T22:34:07.150Z,7.77
2017-10-21T22:36:35.618Z,6.93
2017-10-21T22:39:04.062Z,6.83
2017-10-21T22:41:33.309Z,8.77
2017-10-21T22:44:01.758Z,6.27
2017-10-21T22:46:31.091Z,7.77
2017-10-21T22:48:59.538Z,7.23
2017-10-21T22:51:28.762Z,7.00
2017-10-21T22:53:57.201Z,7.03
2017-10-21T22:56:25.689Z,7.30
2017-10-21T22:58:54.901Z,9.37
2017-10-21T23:01:24.238Z,7.40
2017-10-21T23:03:52.725Z,8.63
2017-10-21T23:06:21.211Z,6.83
2017-10-21T23:08:49.679Z,6.40
2017-10-21T23:11:18.129Z,7.30
2017-10-21T23:13:47.363Z,6.80
2017-10-21T23:16:16.357Z,7.40
2017-10-21T23:18:44.834Z,7.87
2017-10-21T23:21:13.277Z,8.33
2017-10-21T23:23:42.511Z,7.00
2017-10-21T23:26:10.965Z,7.70
2017-10-21T23:28:40.310Z,7.20
2017-10-21T23:31:08.791Z,7.43
2017-10-21T23:33:37.248Z,7.57
2017-10-21T23:36:05.682Z,7.90
2017-10-21T23:38:34.233Z,9.40
2017-10-21T23:41:02.684Z,8.53
2017-10-21T23:43:31.946Z,8.50
2017-10-21T23:46:00.390Z,8.20
2017-10-21T23:48:28.829Z,7.20
2017-10-21T23:50:57.363Z,7.80
2017-10-21T23:53:26.771Z,9.00
2017-10-21T23:55:55.347Z,8.07
2017-10-21T23:58:23.789Z,8.07
